sensor_id;sensor_type;location;lat;lon;timestamp;P1;durP1;ratioP1;P2;durP2;ratioP2
63900;SDS011;50538;53.482;10.294;2023-04-07T00:09:17;7.03;;;2.80;;
63900;SDS011;50538;53.482;10.294;2023-04-07T00:19:17;5.03;;;2.33;;
63900;SDS011;50538;53.482;10.294;2023-04-07T00:29:18;5.95;;;2.78;;
63900;SDS011;50538;53.482;10.294;2023-04-07T00:39:18;6.75;;;2.38;;
63900;SDS011;50538;53.482;10.294;2023-04-07T00:49:19;3.70;;;2.05;;
63900;SDS011;50538;53.482;10.294;2023-04-07T00:59:19;3.92;;;2.13;;
63900;SDS011;50538;53.482;10.294;2023-04-07T01:09:33;5.07;;;2.67;;
63900;SDS011;50538;53.482;10.294;2023-04-07T01:19:42;4.40;;;2.00;;
63900;SDS011;50538;53.482;10.294;2023-04-07T01:30:00;9.52;;;2.42;;
63900;SDS011;50538;53.482;10.294;2023-04-07T01:40:03;4.95;;;2.47;;
63900;SDS011;50538;53.482;10.294;2023-04-07T01:50:06;3.88;;;1.98;;
63900;SDS011;50538;53.482;10.294;2023-04-07T02:00:08;4.07;;;2.30;;
63900;SDS011;50538;53.482;10.294;2023-04-07T02:10:09;5.22;;;1.42;;
63900;SDS011;50538;53.482;10.294;2023-04-07T02:20:12;2.85;;;1.45;;
63900;SDS011;50538;53.482;10.294;2023-04-07T02:30:13;2.90;;;1.60;;
63900;SDS011;50538;53.482;10.294;2023-04-07T02:40:13;7.43;;;2.28;;
63900;SDS011;50538;53.482;10.294;2023-04-07T02:50:14;2.83;;;1.40;;
63900;SDS011;50538;53.482;10.294;2023-04-07T03:00:15;3.90;;;1.98;;
63900;SDS011;50538;53.482;10.294;2023-04-07T03:10:15;3.47;;;1.27;;
63900;SDS011;50538;53.482;10.294;2023-04-07T03:20:16;3.45;;;1.38;;
63900;SDS011;50538;53.482;10.294;2023-04-07T03:30:16;5.35;;;2.03;;
63900;SDS011;50538;53.482;10.294;2023-04-07T03:40:16;4.28;;;1.88;;
63900;SDS011;50538;53.482;10.294;2023-04-07T03:50:17;7.15;;;1.60;;
63900;SDS011;50538;53.482;10.294;2023-04-07T04:00:17;4.63;;;1.92;;
63900;SDS011;50538;53.482;10.294;2023-04-07T04:10:18;3.88;;;1.90;;
63900;SDS011;50538;53.482;10.294;2023-04-07T04:20:19;4.03;;;1.40;;
63900;SDS011;50538;53.482;10.294;2023-04-07T04:30:21;3.95;;;1.95;;
63900;SDS011;50538;53.482;10.294;2023-04-07T04:40:21;3.97;;;1.38;;
63900;SDS011;50538;53.482;10.294;2023-04-07T04:50:21;2.30;;;1.20;;
63900;SDS011;50538;53.482;10.294;2023-04-07T05:00:22;4.78;;;2.00;;
63900;SDS011;50538;53.482;10.294;2023-04-07T05:10:22;3.08;;;1.63;;
63900;SDS011;50538;53.482;10.294;2023-04-07T05:20:22;3.97;;;1.75;;
63900;SDS011;50538;53.482;10.294;2023-04-07T05:30:23;5.00;;;1.80;;
63900;SDS011;50538;53.482;10.294;2023-04-07T05:40:23;3.63;;;2.20;;
63900;SDS011;50538;53.482;10.294;2023-04-07T05:50:23;2.08;;;0.68;;
63900;SDS011;50538;53.482;10.294;2023-04-07T06:00:24;8.30;;;2.20;;
63900;SDS011;50538;53.482;10.294;2023-04-07T06:10:24;6.63;;;2.20;;
63900;SDS011;50538;53.482;10.294;2023-04-07T06:20:25;4.65;;;2.00;;
63900;SDS011;50538;53.482;10.294;2023-04-07T06:30:26;6.97;;;2.38;;
63900;SDS011;50538;53.482;10.294;2023-04-07T06:40:27;3.60;;;1.67;;
63900;SDS011;50538;53.482;10.294;2023-04-07T06:50:27;7.25;;;2.50;;
63900;SDS011;50538;53.482;10.294;2023-04-07T07:00:27;5.75;;;2.30;;
63900;SDS011;50538;53.482;10.294;2023-04-07T07:10:29;5.30;;;2.60;;
63900;SDS011;50538;53.482;10.294;2023-04-07T07:20:30;5.28;;;2.58;;
63900;SDS011;50538;53.482;10.294;2023-04-07T07:30:30;5.38;;;2.42;;
63900;SDS011;50538;53.482;10.294;2023-04-07T07:40:31;8.60;;;2.80;;
63900;SDS011;50538;53.482;10.294;2023-04-07T07:50:31;4.72;;;2.15;;
63900;SDS011;50538;53.482;10.294;2023-04-07T08:00:32;7.68;;;3.95;;
63900;SDS011;50538;53.482;10.294;2023-04-07T08:10:32;8.50;;;2.30;;
63900;SDS011;50538;53.482;10.294;2023-04-07T08:20:32;5.30;;;2.00;;
63900;SDS011;50538;53.482;10.294;2023-04-07T08:30:43;6.57;;;2.97;;
63900;SDS011;50538;53.482;10.294;2023-04-07T08:40:47;10.10;;;2.63;;
63900;SDS011;50538;53.482;10.294;2023-04-07T08:50:54;7.50;;;2.70;;
63900;SDS011;50538;53.482;10.294;2023-04-07T09:00:56;5.90;;;2.42;;
63900;SDS011;50538;53.482;10.294;2023-04-07T09:10:57;7.22;;;2.42;;
63900;SDS011;50538;53.482;10.294;2023-04-07T09:21:01;6.07;;;2.60;;
63900;SDS011;50538;53.482;10.294;2023-04-07T09:31:04;8.00;;;2.67;;
63900;SDS011;50538;53.482;10.294;2023-04-07T09:41:08;4.88;;;2.05;;
63900;SDS011;50538;53.482;10.294;2023-04-07T09:51:13;8.85;;;2.65;;
63900;SDS011;50538;53.482;10.294;2023-04-07T10:01:17;5.43;;;2.65;;
63900;SDS011;50538;53.482;10.294;2023-04-07T10:11:21;4.40;;;1.30;;
63900;SDS011;50538;53.482;10.294;2023-04-07T10:21:34;7.00;;;2.47;;
63900;SDS011;50538;53.482;10.294;2023-04-07T10:31:53;6.97;;;2.40;;
63900;SDS011;50538;53.482;10.294;2023-04-07T10:42:53;5.40;;;2.17;;
63900;SDS011;50538;53.482;10.294;2023-04-07T10:52:47;6.40;;;2.30;;
63900;SDS011;50538;53.482;10.294;2023-04-07T11:03:10;6.22;;;2.55;;
63900;SDS011;50538;53.482;10.294;2023-04-07T11:13:14;6.68;;;2.45;;
63900;SDS011;50538;53.482;10.294;2023-04-07T11:23:14;5.30;;;2.38;;
63900;SDS011;50538;53.482;10.294;2023-04-07T11:33:16;3.67;;;1.67;;
63900;SDS011;50538;53.482;10.294;2023-04-07T11:53:30;3.80;;;1.70;;
63900;SDS011;50538;53.482;10.294;2023-04-07T12:03:53;3.92;;;1.65;;
63900;SDS011;50538;53.482;10.294;2023-04-07T12:13:54;5.15;;;2.00;;
63900;SDS011;50538;53.482;10.294;2023-04-07T12:23:56;3.90;;;1.40;;
63900;SDS011;50538;53.482;10.294;2023-04-07T12:33:56;5.05;;;1.40;;
63900;SDS011;50538;53.482;10.294;2023-04-07T12:43:57;2.17;;;1.25;;
63900;SDS011;50538;53.482;10.294;2023-04-07T12:53:58;2.78;;;1.33;;
63900;SDS011;50538;53.482;10.294;2023-04-07T13:03:59;1.92;;;0.98;;
63900;SDS011;50538;53.482;10.294;2023-04-07T13:14:01;1.70;;;0.90;;
63900;SDS011;50538;53.482;10.294;2023-04-07T13:24:01;2.73;;;1.00;;
63900;SDS011;50538;53.482;10.294;2023-04-07T13:34:02;2.10;;;0.90;;
63900;SDS011;50538;53.482;10.294;2023-04-07T13:44:02;2.83;;;0.77;;
63900;SDS011;50538;53.482;10.294;2023-04-07T13:54:02;3.13;;;1.00;;
63900;SDS011;50538;53.482;10.294;2023-04-07T14:04:03;2.88;;;0.82;;
63900;SDS011;50538;53.482;10.294;2023-04-07T14:14:04;2.88;;;0.90;;
63900;SDS011;50538;53.482;10.294;2023-04-07T14:24:05;1.30;;;0.80;;
63900;SDS011;50538;53.482;10.294;2023-04-07T14:34:05;2.63;;;1.52;;
63900;SDS011;50538;53.482;10.294;2023-04-07T14:44:09;1.60;;;1.10;;
63900;SDS011;50538;53.482;10.294;2023-04-07T14:54:09;3.05;;;1.25;;
63900;SDS011;50538;53.482;10.294;2023-04-07T15:04:10;2.43;;;1.47;;
63900;SDS011;50538;53.482;10.294;2023-04-07T15:14:10;2.47;;;1.17;;
63900;SDS011;50538;53.482;10.294;2023-04-07T15:24:11;2.65;;;1.10;;
63900;SDS011;50538;53.482;10.294;2023-04-07T15:34:11;2.45;;;1.27;;
63900;SDS011;50538;53.482;10.294;2023-04-07T15:44:15;2.75;;;1.35;;
63900;SDS011;50538;53.482;10.294;2023-04-07T15:54:17;4.95;;;1.33;;
63900;SDS011;50538;53.482;10.294;2023-04-07T16:04:23;1.98;;;0.93;;
63900;SDS011;50538;53.482;10.294;2023-04-07T16:14:23;3.65;;;1.33;;
63900;SDS011;50538;53.482;10.294;2023-04-07T16:24:28;4.38;;;1.77;;
63900;SDS011;50538;53.482;10.294;2023-04-07T16:34:29;5.22;;;1.88;;
63900;SDS011;50538;53.482;10.294;2023-04-07T16:44:29;4.22;;;1.45;;
63900;SDS011;50538;53.482;10.294;2023-04-07T16:54:33;4.57;;;1.67;;
63900;SDS011;50538;53.482;10.294;2023-04-07T17:04:34;4.15;;;1.38;;
63900;SDS011;50538;53.482;10.294;2023-04-07T17:14:34;3.25;;;1.42;;
63900;SDS011;50538;53.482;10.294;2023-04-07T17:24:35;2.90;;;1.35;;
63900;SDS011;50538;53.482;10.294;2023-04-07T17:34:35;4.40;;;1.00;;
63900;SDS011;50538;53.482;10.294;2023-04-07T17:44:36;3.05;;;1.08;;
63900;SDS011;50538;53.482;10.294;2023-04-07T17:54:36;2.80;;;1.42;;
63900;SDS011;50538;53.482;10.294;2023-04-07T18:04:36;3.47;;;1.38;;
63900;SDS011;50538;53.482;10.294;2023-04-07T18:14:37;5.97;;;1.50;;
63900;SDS011;50538;53.482;10.294;2023-04-07T18:24:37;2.05;;;0.82;;
63900;SDS011;50538;53.482;10.294;2023-04-07T18:34:38;5.03;;;1.67;;
63900;SDS011;50538;53.482;10.294;2023-04-07T18:44:38;2.78;;;1.52;;
63900;SDS011;50538;53.482;10.294;2023-04-07T18:54:38;6.15;;;2.30;;
63900;SDS011;50538;53.482;10.294;2023-04-07T19:04:39;6.82;;;2.40;;
63900;SDS011;50538;53.482;10.294;2023-04-07T19:14:39;4.40;;;1.65;;
63900;SDS011;50538;53.482;10.294;2023-04-07T19:24:40;2.20;;;1.08;;
63900;SDS011;50538;53.482;10.294;2023-04-07T19:34:40;3.90;;;1.65;;
63900;SDS011;50538;53.482;10.294;2023-04-07T19:44:40;3.05;;;1.25;;
63900;SDS011;50538;53.482;10.294;2023-04-07T19:54:42;2.65;;;1.27;;
63900;SDS011;50538;53.482;10.294;2023-04-07T20:04:42;5.03;;;1.88;;
63900;SDS011;50538;53.482;10.294;2023-04-07T20:14:42;4.13;;;1.38;;
63900;SDS011;50538;53.482;10.294;2023-04-07T20:24:43;3.75;;;1.58;;
63900;SDS011;50538;53.482;10.294;2023-04-07T20:34:43;3.33;;;1.35;;
63900;SDS011;50538;53.482;10.294;2023-04-07T20:44:46;4.13;;;1.80;;
63900;SDS011;50538;53.482;10.294;2023-04-07T20:54:47;2.08;;;1.02;;
63900;SDS011;50538;53.482;10.294;2023-04-07T21:04:48;6.60;;;1.90;;
63900;SDS011;50538;53.482;10.294;2023-04-07T21:14:48;3.13;;;1.50;;
63900;SDS011;50538;53.482;10.294;2023-04-07T21:24:51;4.57;;;1.52;;
63900;SDS011;50538;53.482;10.294;2023-04-07T21:34:52;4.35;;;1.52;;
63900;SDS011;50538;53.482;10.294;2023-04-07T21:44:52;2.67;;;1.17;;
63900;SDS011;50538;53.482;10.294;2023-04-07T21:54:53;5.85;;;1.42;;
63900;SDS011;50538;53.482;10.294;2023-04-07T22:04:53;3.15;;;1.40;;
63900;SDS011;50538;53.482;10.294;2023-04-07T22:14:53;2.85;;;1.38;;
63900;SDS011;50538;53.482;10.294;2023-04-07T22:24:54;3.17;;;1.42;;
63900;SDS011;50538;53.482;10.294;2023-04-07T22:34:55;5.65;;;1.13;;
63900;SDS011;50538;53.482;10.294;2023-04-07T22:44:55;2.08;;;1.20;;
63900;SDS011;50538;53.482;10.294;2023-04-07T22:54:55;3.10;;;1.42;;
63900;SDS011;50538;53.482;10.294;2023-04-07T23:04:56;4.50;;;1.67;;
63900;SDS011;50538;53.482;10.294;2023-04-07T23:14:57;7.53;;;2.25;;
63900;SDS011;50538;53.482;10.294;2023-04-07T23:24:57;6.00;;;2.25;;
63900;SDS011;50538;53.482;10.294;2023-04-07T23:34:57;7.07;;;2.67;;
63900;SDS011;50538;53.482;10.294;2023-04-07T23:44:58;10.20;;;2.17;;
63900;SDS011;50538;53.482;10.294;2023-04-07T23:54:58;4.60;;;1.83;;
